createdAt,value
2022-11-27T00:02:44.222Z,30.43
2022-11-27T00:07:51.395Z,30.25
2022-11-27T00:12:58.462Z,30.02
2022-11-27T00:18:05.598Z,29.80
2022-11-27T00:23:12.767Z,29.76
2022-11-27T00:28:19.950Z,29.69
2022-11-27T00:33:27.139Z,29.72
2022-11-27T00:38:38.491Z,30.05
2022-11-27T00:43:45.471Z,29.82
2022-11-27T00:48:48.776Z,29.75
2022-11-27T00:53:55.934Z,29.66
2022-11-27T00:59:03.169Z,29.43
2022-11-27T01:04:10.339Z,29.72
2022-11-27T01:09:17.560Z,29.47
2022-11-27T01:14:24.860Z,29.40
2022-11-27T01:19:31.954Z,29.22
2022-11-27T01:24:39.425Z,29.37
2022-11-27T01:29:46.359Z,30.28
2022-11-27T01:34:54.492Z,30.82
2022-11-27T01:40:00.785Z,31.07
2022-11-27T01:45:08.038Z,31.56
2022-11-27T01:50:15.243Z,31.54
2022-11-27T01:55:22.633Z,31.56
2022-11-27T02:00:29.863Z,30.85
2022-11-27T02:05:37.038Z,30.92
2022-11-27T02:10:44.265Z,30.33
2022-11-27T02:15:51.481Z,29.80
2022-11-27T02:20:58.652Z,29.51
2022-11-27T02:26:05.885Z,29.34
2022-11-27T02:31:13.183Z,29.18
2022-11-27T02:36:20.555Z,29.21
2022-11-27T02:41:27.754Z,28.18
2022-11-27T02:46:35.157Z,27.81
2022-11-27T02:51:42.187Z,28.47
2022-11-27T02:56:49.374Z,28.26
2022-11-27T03:01:56.795Z,27.95
2022-11-27T03:07:03.846Z,27.87
2022-11-27T03:12:11.106Z,27.93
2022-11-27T03:17:18.410Z,28.08
2022-11-27T03:22:25.483Z,28.14
2022-11-27T03:27:32.638Z,28.31
2022-11-27T03:32:39.963Z,28.91
2022-11-27T03:37:47.068Z,29.13
2022-11-27T03:42:54.237Z,29.40
2022-11-27T03:48:07.417Z,29.66
2022-11-27T03:53:08.755Z,30.21
2022-11-27T03:58:15.858Z,31.59
2022-11-27T04:03:23.078Z,31.43
2022-11-27T04:08:30.457Z,31.34
2022-11-27T04:13:37.503Z,31.34
2022-11-27T04:18:44.743Z,31.44
2022-11-27T04:23:52.067Z,31.27
2022-11-27T04:28:59.166Z,31.46
2022-11-27T04:34:06.408Z,31.49
2022-11-27T04:39:13.698Z,31.58
2022-11-27T04:44:20.795Z,31.64
2022-11-27T04:49:27.970Z,31.72
2022-11-27T04:54:35.313Z,31.75
2022-11-27T04:59:42.379Z,31.84
2022-11-27T05:04:49.612Z,31.85
2022-11-27T05:09:56.965Z,32.07
2022-11-27T05:15:04.804Z,32.11
2022-11-27T05:20:11.324Z,32.49
2022-11-27T05:25:18.648Z,32.52
2022-11-27T05:30:25.795Z,32.50
2022-11-27T05:35:33.046Z,32.44
2022-11-27T05:40:40.371Z,32.42
2022-11-27T05:45:47.489Z,32.38
2022-11-27T05:50:54.752Z,32.33
2022-11-27T05:56:07.099Z,32.34
2022-11-27T06:01:09.287Z,32.36
2022-11-27T06:06:16.370Z,32.35
2022-11-27T06:11:23.568Z,32.37
2022-11-27T06:16:30.977Z,32.34
2022-11-27T06:21:38.007Z,32.38
2022-11-27T06:26:45.258Z,32.17
2022-11-27T06:31:52.600Z,32.27
2022-11-27T06:36:59.663Z,32.27
2022-11-27T06:42:06.879Z,32.12
2022-11-27T06:47:14.195Z,32.03
2022-11-27T06:52:21.250Z,32.06
2022-11-27T06:57:28.415Z,32.11
2022-11-27T07:02:35.800Z,32.11
2022-11-27T07:07:44.009Z,32.40
2022-11-27T07:12:49.994Z,32.70
2022-11-27T07:17:57.333Z,32.68
2022-11-27T07:23:04.423Z,32.62
2022-11-27T07:28:15.987Z,32.59
2022-11-27T07:33:19.096Z,32.52
2022-11-27T07:38:26.194Z,32.48
2022-11-27T07:43:33.337Z,32.44
2022-11-27T07:48:40.664Z,32.43
2022-11-27T07:53:47.762Z,32.43
2022-11-27T07:58:54.951Z,32.39
2022-11-27T08:04:08.165Z,32.41
2022-11-27T08:09:09.486Z,32.42
2022-11-27T08:14:16.596Z,32.41
2022-11-27T08:19:23.776Z,32.43
2022-11-27T08:24:31.106Z,32.44
2022-11-27T08:29:38.131Z,32.46
2022-11-27T08:34:45.315Z,32.46
2022-11-27T08:39:52.617Z,32.49
2022-11-27T08:44:59.723Z,32.53
2022-11-27T08:50:06.944Z,32.56
2022-11-27T08:55:14.222Z,32.58
2022-11-27T09:00:26.394Z,32.98
2022-11-27T09:05:28.538Z,34.13
2022-11-27T09:10:35.836Z,34.04
2022-11-27T09:15:42.913Z,33.73
2022-11-27T09:20:50.119Z,33.48
2022-11-27T09:25:57.506Z,33.13
2022-11-27T09:31:04.628Z,32.87
2022-11-27T09:36:11.852Z,32.56
2022-11-27T09:41:19.191Z,32.33
2022-11-27T09:46:26.303Z,32.28
2022-11-27T09:51:33.367Z,32.13
2022-11-27T09:56:40.682Z,32.15
2022-11-27T10:01:51.027Z,32.02
2022-11-27T10:06:55.136Z,32.03
2022-11-27T10:12:02.523Z,32.05
2022-11-27T10:17:09.655Z,32.07
2022-11-27T10:22:20.949Z,32.09
2022-11-27T10:27:24.115Z,31.94
2022-11-27T10:32:54.688Z,31.81
2022-11-27T10:37:39.021Z,31.75
2022-11-27T10:42:46.316Z,32.59
2022-11-27T10:47:53.421Z,32.50
2022-11-27T10:53:00.603Z,32.58
2022-11-27T10:58:07.946Z,32.24
2022-11-27T11:03:15.028Z,32.13
2022-11-27T11:08:22.240Z,32.14
2022-11-27T11:13:29.569Z,31.93
2022-11-27T11:18:36.648Z,31.72
2022-11-27T11:23:43.853Z,31.61
2022-11-27T11:28:51.171Z,31.54
2022-11-27T11:33:58.243Z,31.50
2022-11-27T11:39:05.463Z,31.40
2022-11-27T11:44:12.783Z,31.31
2022-11-27T11:49:19.886Z,31.30
2022-11-27T11:54:27.096Z,31.25
2022-11-27T11:59:34.398Z,31.23
2022-11-27T12:04:41.884Z,31.14
2022-11-27T12:09:48.886Z,31.14
2022-11-27T12:14:56.205Z,31.10
2022-11-27T12:20:03.306Z,31.10
2022-11-27T12:25:10.507Z,31.07
2022-11-27T12:30:17.896Z,31.05
2022-11-27T12:35:24.928Z,31.07
2022-11-27T12:40:32.154Z,31.06
2022-11-27T12:45:39.573Z,31.07
2022-11-27T12:50:46.640Z,31.08
2022-11-27T12:55:53.883Z,31.08
2022-11-27T13:01:01.897Z,31.08
2022-11-27T13:06:08.893Z,31.08
2022-11-27T13:11:16.300Z,31.07
2022-11-27T13:16:23.736Z,31.04
2022-11-27T13:21:30.735Z,31.10
2022-11-27T13:26:38.006Z,31.10
2022-11-27T13:31:45.579Z,31.12
2022-11-27T13:36:52.711Z,31.10
2022-11-27T13:42:00.522Z,31.12
2022-11-27T13:47:13.969Z,31.11
2022-11-27T13:52:15.384Z,31.11
2022-11-27T13:57:22.575Z,31.13
2022-11-27T14:02:29.886Z,31.14
2022-11-27T14:07:37.278Z,31.13
2022-11-27T14:12:44.312Z,31.15
2022-11-27T14:17:51.784Z,31.17
2022-11-27T14:23:14.338Z,31.20
2022-11-27T14:28:06.410Z,31.25
2022-11-27T14:33:13.671Z,31.48
2022-11-27T14:38:21.334Z,31.60
2022-11-27T14:43:28.469Z,31.56
2022-11-27T14:48:36.033Z,31.62
2022-11-27T14:53:43.522Z,31.36
2022-11-27T14:58:50.951Z,31.34
2022-11-27T15:03:58.375Z,31.22
2022-11-27T15:09:43.298Z,31.39
2022-11-27T15:14:13.164Z,31.20
2022-11-27T15:19:20.694Z,31.19
2022-11-27T15:24:28.139Z,31.20
2022-11-27T15:29:35.231Z,31.08
2022-11-27T15:34:42.688Z,31.12
2022-11-27T15:39:49.747Z,31.18
2022-11-27T15:44:56.838Z,31.21
2022-11-27T15:50:04.119Z,31.06
2022-11-27T15:55:11.477Z,31.02
2022-11-27T16:00:18.851Z,31.02
2022-11-27T16:05:26.458Z,30.89
2022-11-27T16:10:33.964Z,30.88
2022-11-27T16:15:41.390Z,30.98
2022-11-27T16:20:48.999Z,30.91
2022-11-27T16:25:56.471Z,31.06
2022-11-27T16:31:03.819Z,30.90
2022-11-27T16:36:11.530Z,31.01
2022-11-27T16:41:19.276Z,31.10
2022-11-27T16:46:26.654Z,31.03
2022-11-27T16:51:33.999Z,30.87
2022-11-27T16:56:41.489Z,31.01
2022-11-27T17:01:50.039Z,31.42
2022-11-27T17:06:57.753Z,30.95
2022-11-27T17:12:05.145Z,31.10
2022-11-27T17:17:12.544Z,31.02
2022-11-27T17:22:20.056Z,30.91
2022-11-27T17:27:29.428Z,30.88
2022-11-27T17:32:36.719Z,30.80
2022-11-27T17:37:44.230Z,30.69
2022-11-27T17:42:51.968Z,31.53
2022-11-27T17:47:59.562Z,31.88
2022-11-27T17:53:07.080Z,31.97
2022-11-27T17:58:14.745Z,32.12
2022-11-27T18:03:21.947Z,32.76
2022-11-27T18:08:29.416Z,33.23
2022-11-27T18:13:37.237Z,32.62
2022-11-27T18:18:44.737Z,33.22
2022-11-27T18:28:59.982Z,33.45
2022-11-27T18:34:07.582Z,33.71
2022-11-27T18:39:15.194Z,33.71
2022-11-27T18:44:22.902Z,33.62
2022-11-27T18:49:30.098Z,32.96
2022-11-27T18:54:37.636Z,32.92
2022-11-27T18:59:50.474Z,33.19
2022-11-27T19:04:53.086Z,33.43
2022-11-27T19:10:00.676Z,34.17
2022-11-27T19:15:08.397Z,34.23
2022-11-27T19:20:16.127Z,33.96
2022-11-27T19:25:23.627Z,34.16
2022-11-27T19:30:34.219Z,34.00
2022-11-27T19:35:39.597Z,34.03
2022-11-27T19:40:47.083Z,33.94
2022-11-27T19:45:54.794Z,33.88
2022-11-27T19:51:03.451Z,33.62
2022-11-27T19:56:11.049Z,33.63
2022-11-27T20:01:18.863Z,33.73
2022-11-27T20:06:26.608Z,33.92
2022-11-27T20:11:35.329Z,34.00
2022-11-27T20:16:42.062Z,33.81
2022-11-27T20:21:49.860Z,33.74
2022-11-27T20:26:57.461Z,33.65
2022-11-27T20:32:05.185Z,33.66
2022-11-27T20:37:12.800Z,33.63
2022-11-27T20:42:20.298Z,33.68
2022-11-27T20:47:27.616Z,33.59
2022-11-27T20:52:34.913Z,33.54
2022-11-27T20:57:42.318Z,33.52
2022-11-27T21:02:50.028Z,33.51
2022-11-27T21:07:57.510Z,33.65
2022-11-27T21:13:04.493Z,33.53
2022-11-27T21:18:11.767Z,33.47
2022-11-27T21:23:19.387Z,33.59
2022-11-27T21:28:26.878Z,33.54
2022-11-27T21:33:34.186Z,33.54
2022-11-27T21:38:41.826Z,33.80
2022-11-27T21:43:49.042Z,33.62
2022-11-27T21:48:56.231Z,33.58
2022-11-27T21:54:03.523Z,33.59
2022-11-27T21:59:10.629Z,33.52
2022-11-27T22:04:17.911Z,33.30
2022-11-27T22:09:25.152Z,33.42
2022-11-27T22:14:32.292Z,33.35
2022-11-27T22:19:39.440Z,33.23
2022-11-27T22:24:46.781Z,33.21
2022-11-27T22:29:53.849Z,33.41
2022-11-27T22:35:01.082Z,33.35
2022-11-27T22:40:08.459Z,33.30
2022-11-27T22:45:15.596Z,33.26
2022-11-27T22:50:23.449Z,33.22
2022-11-27T22:55:30.815Z,33.23
2022-11-27T23:00:38.122Z,33.18
2022-11-27T23:05:45.719Z,33.58
2022-11-27T23:10:53.036Z,33.67
2022-11-27T23:16:00.153Z,33.52
2022-11-27T23:21:07.439Z,33.53
2022-11-27T23:26:17.866Z,33.49
2022-11-27T23:31:29.802Z,33.59
2022-11-27T23:36:29.010Z,33.66
2022-11-27T23:41:36.394Z,33.79
2022-11-27T23:46:43.454Z,33.56
2022-11-27T23:51:50.661Z,33.74
2022-11-27T23:56:57.955Z,33.70
